EJU17MC EDDH-LIRF
Flight info
| Callsign | EJU17MC |
|---|---|
| Flight time | 1h 58m |
| Altitude | 39000 |
| Route | AMLUH3B AMLUH M852 DENIX DCT ZUCKA DCT MOOCE DCT BERAS M736 LIZUM N503 LIKDA DCT BAKOR DCT VESAL DCT VIC DCT KOPER DCT SUKOM DCT GAVRA DCT RITEB |
| Aircraft | A20N/M-SDE2E3FGHIRWXY/LB1 |
Departure
| Time | 2026-05-01 11:30 |
|---|---|
| Airport | Hamburg Helmut Schmidt Airport (EDDH) |
Arrival
| Time | 2026-05-01 13:28 |
|---|---|
| Airport | Rome–Fiumicino Leonardo da Vinci International Airport (LIRF) |
| Time | Latitude | Longitude | Altitude | Speed | Heading |
|---|---|---|---|---|---|
| 2026-05-01 11:10 | 53.63208 | 10.00360 | 49 ft | 0 kts | 86° |
| 2026-05-01 11:20 | 53.63208 | 10.00358 | 49 ft | 2 kts | 86° |
| 2026-05-01 11:20 | 53.63208 | 10.00328 | 49 ft | 3 kts | 96° |
| 2026-05-01 11:20 | 53.63205 | 10.00298 | 49 ft | 3 kts | 83° |
| 2026-05-01 11:20 | 53.63210 | 10.00271 | 49 ft | 3 kts | 160° |
| 2026-05-01 11:21 | 53.63214 | 10.00268 | 42 ft | 0 kts | 176° |
| 2026-05-01 11:26 | 53.63213 | 10.00268 | 49 ft | 0 kts | 178° |
| 2026-05-01 11:26 | 53.63208 | 10.00255 | 46 ft | 2 kts | 273° |
| 2026-05-01 11:27 | 53.63259 | 10.00235 | 49 ft | 16 kts | 358° |
| 2026-05-01 11:27 | 53.63404 | 10.00222 | 49 ft | 22 kts | 356° |
| 2026-05-01 11:27 | 53.63494 | 10.00177 | 49 ft | 7 kts | 326° |
| 2026-05-01 11:27 | 53.63495 | 10.00176 | 49 ft | 0 kts | 327° |
| 2026-05-01 11:28 | 53.63498 | 10.00173 | 49 ft | 1 kts | 327° |
| 2026-05-01 11:28 | 53.63510 | 10.00158 | 49 ft | 3 kts | 324° |
| 2026-05-01 11:28 | 53.63538 | 10.00121 | 49 ft | 9 kts | 320° |
| 2026-05-01 11:29 | 53.63591 | 9.99944 | 49 ft | 1 kts | 232° |
| 2026-05-01 11:29 | 53.63539 | 9.99837 | 49 ft | 30 kts | 230° |
| 2026-05-01 11:29 | 53.62458 | 9.97619 | 243 ft | 193 kts | 227° |
| 2026-05-01 11:30 | 53.61533 | 9.95740 | 752 ft | 218 kts | 227° |
| 2026-05-01 11:30 | 53.60544 | 9.93737 | 1538 ft | 226 kts | 229° |
| 2026-05-01 11:30 | 53.59531 | 9.91659 | 2381 ft | 231 kts | 230° |
| 2026-05-01 11:30 | 53.58512 | 9.89551 | 3352 ft | 233 kts | 229° |
| 2026-05-01 11:31 | 53.57434 | 9.87488 | 4201 ft | 236 kts | 219° |
| 2026-05-01 11:31 | 53.55954 | 9.86487 | 5066 ft | 231 kts | 180° |
| 2026-05-01 11:31 | 53.54449 | 9.87244 | 5940 ft | 229 kts | 149° |
| 2026-05-01 11:31 | 53.53084 | 9.88812 | 6564 ft | 249 kts | 144° |
| 2026-05-01 11:32 | 53.51757 | 9.90781 | 7637 ft | 260 kts | 126° |
| 2026-05-01 11:32 | 53.51188 | 9.93660 | 9004 ft | 266 kts | 97° |
| 2026-05-01 11:32 | 53.51143 | 9.96786 | 10358 ft | 271 kts | 96° |
| 2026-05-01 11:32 | 53.50749 | 9.99978 | 11158 ft | 290 kts | 112° |
| 2026-05-01 11:33 | 53.49628 | 10.02874 | 12014 ft | 304 kts | 136° |
| 2026-05-01 11:33 | 53.47788 | 10.04679 | 13095 ft | 315 kts | 162° |
| 2026-05-01 11:33 | 53.45585 | 10.05008 | 14251 ft | 324 kts | 180° |
| 2026-05-01 11:33 | 53.43315 | 10.04560 | 15279 ft | 333 kts | 188° |
| 2026-05-01 11:34 | 53.41028 | 10.03711 | 16291 ft | 341 kts | 192° |
| 2026-05-01 11:34 | 53.38742 | 10.02701 | 17317 ft | 348 kts | 193° |
| 2026-05-01 11:34 | 53.36352 | 10.01625 | 18356 ft | 354 kts | 193° |
| 2026-05-01 11:34 | 53.33977 | 10.00598 | 19274 ft | 360 kts | 192° |
| 2026-05-01 11:35 | 53.31521 | 9.99620 | 20164 ft | 366 kts | 191° |
| 2026-05-01 11:35 | 53.29021 | 9.98693 | 21062 ft | 371 kts | 191° |
| 2026-05-01 11:35 | 53.26470 | 9.97867 | 21969 ft | 375 kts | 186° |
| 2026-05-01 11:35 | 53.23852 | 9.97741 | 22796 ft | 380 kts | 173° |
| 2026-05-01 11:36 | 53.21227 | 9.98393 | 23623 ft | 384 kts | 168° |
| 2026-05-01 11:36 | 53.18603 | 9.99365 | 24176 ft | 389 kts | 165° |
| 2026-05-01 11:36 | 53.15985 | 10.00528 | 24374 ft | 390 kts | 163° |
| 2026-05-01 11:36 | 53.13379 | 10.01781 | 24398 ft | 390 kts | 162° |
| 2026-05-01 11:37 | 53.10768 | 10.03066 | 24399 ft | 392 kts | 162° |
| 2026-05-01 11:37 | 53.08152 | 10.04344 | 24397 ft | 392 kts | 162° |
| 2026-05-01 11:37 | 53.05533 | 10.05602 | 24397 ft | 391 kts | 163° |
| 2026-05-01 11:37 | 53.02911 | 10.06840 | 24399 ft | 392 kts | 163° |
| 2026-05-01 11:38 | 53.00283 | 10.08064 | 24400 ft | 392 kts | 163° |
| 2026-05-01 11:38 | 52.97660 | 10.09276 | 24403 ft | 392 kts | 163° |
| 2026-05-01 11:38 | 52.95035 | 10.10483 | 24399 ft | 391 kts | 163° |
| 2026-05-01 11:38 | 52.92415 | 10.11684 | 24400 ft | 391 kts | 163° |
| 2026-05-01 11:39 | 52.89791 | 10.12888 | 24401 ft | 391 kts | 163° |
| 2026-05-01 11:39 | 52.87166 | 10.14086 | 24401 ft | 392 kts | 163° |
| 2026-05-01 11:39 | 52.84531 | 10.15258 | 24401 ft | 392 kts | 163° |
| 2026-05-01 11:39 | 52.81903 | 10.16468 | 24399 ft | 392 kts | 163° |
| 2026-05-01 11:40 | 52.79276 | 10.17686 | 24416 ft | 393 kts | 163° |
| 2026-05-01 11:40 | 52.76643 | 10.18902 | 24529 ft | 392 kts | 163° |
| 2026-05-01 11:40 | 52.74025 | 10.20134 | 25265 ft | 389 kts | 162° |
| 2026-05-01 11:40 | 52.71464 | 10.21386 | 26378 ft | 380 kts | 163° |
| 2026-05-01 11:41 | 52.68947 | 10.22528 | 27525 ft | 370 kts | 163° |
| 2026-05-01 11:41 | 52.66492 | 10.23589 | 28635 ft | 361 kts | 164° |
| 2026-05-01 11:41 | 52.64098 | 10.24647 | 29732 ft | 351 kts | 163° |
| 2026-05-01 11:41 | 52.61777 | 10.25692 | 30786 ft | 340 kts | 163° |
| 2026-05-01 11:42 | 52.59529 | 10.26715 | 31685 ft | 330 kts | 163° |
| 2026-05-01 11:42 | 52.57346 | 10.27710 | 32525 ft | 321 kts | 163° |
| 2026-05-01 11:42 | 52.55206 | 10.28685 | 33168 ft | 319 kts | 163° |
| 2026-05-01 11:42 | 52.53057 | 10.29662 | 33617 ft | 322 kts | 163° |
| 2026-05-01 11:43 | 52.50922 | 10.30629 | 34030 ft | 324 kts | 163° |
| 2026-05-01 11:43 | 52.48737 | 10.31617 | 34424 ft | 327 kts | 164° |
| 2026-05-01 11:43 | 52.46501 | 10.32624 | 34760 ft | 330 kts | 164° |
| 2026-05-01 11:44 | 52.42055 | 10.34619 | 35349 ft | 337 kts | 164° |
| 2026-05-01 11:44 | 52.39790 | 10.35635 | 35396 ft | 338 kts | 164° |
| 2026-05-01 11:44 | 52.35254 | 10.37663 | 35400 ft | 338 kts | 164° |
| 2026-05-01 11:45 | 52.30591 | 10.39746 | 35411 ft | 361 kts | 164° |
| 2026-05-01 11:45 | 52.28124 | 10.40846 | 35408 ft | 374 kts | 164° |
| 2026-05-01 11:45 | 52.25570 | 10.41983 | 35409 ft | 387 kts | 164° |
| 2026-05-01 11:46 | 52.22930 | 10.43158 | 35416 ft | 400 kts | 164° |
| 2026-05-01 11:46 | 52.20210 | 10.44367 | 35487 ft | 410 kts | 164° |
| 2026-05-01 11:46 | 52.17430 | 10.45600 | 35619 ft | 418 kts | 164° |
| 2026-05-01 11:46 | 52.14605 | 10.46851 | 35840 ft | 424 kts | 164° |
| 2026-05-01 11:47 | 52.11752 | 10.48112 | 36207 ft | 425 kts | 164° |
| 2026-05-01 11:47 | 52.08900 | 10.49372 | 36618 ft | 425 kts | 165° |
| 2026-05-01 11:47 | 52.06051 | 10.50628 | 37058 ft | 425 kts | 164° |
| 2026-05-01 11:47 | 52.03190 | 10.51889 | 37340 ft | 428 kts | 165° |
| 2026-05-01 11:48 | 52.00320 | 10.53152 | 37794 ft | 426 kts | 165° |
| 2026-05-01 11:48 | 51.97460 | 10.54409 | 38199 ft | 426 kts | 165° |
| 2026-05-01 11:48 | 51.94594 | 10.55667 | 38592 ft | 426 kts | 165° |
| 2026-05-01 11:48 | 51.91732 | 10.56921 | 38968 ft | 427 kts | 165° |
| 2026-05-01 11:49 | 51.88856 | 10.58179 | 39243 ft | 428 kts | 165° |
| 2026-05-01 11:49 | 51.85976 | 10.59439 | 39376 ft | 429 kts | 165° |
| 2026-05-01 11:49 | 51.80216 | 10.61952 | 39398 ft | 429 kts | 165° |
| 2026-05-01 11:50 | 51.74441 | 10.64466 | 39398 ft | 429 kts | 165° |
| 2026-05-01 11:50 | 51.68713 | 10.66951 | 39403 ft | 430 kts | 165° |
| 2026-05-01 11:51 | 51.62964 | 10.69440 | 39404 ft | 427 kts | 165° |
| 2026-05-01 11:51 | 51.57206 | 10.71926 | 39407 ft | 430 kts | 165° |
| 2026-05-01 11:52 | 51.51426 | 10.74415 | 39405 ft | 431 kts | 165° |
| 2026-05-01 11:52 | 51.45633 | 10.76902 | 39405 ft | 431 kts | 165° |
| 2026-05-01 11:53 | 51.39837 | 10.79386 | 39405 ft | 430 kts | 165° |
| 2026-05-01 11:53 | 51.34047 | 10.81859 | 39409 ft | 431 kts | 165° |
| 2026-05-01 11:54 | 51.28269 | 10.84321 | 39403 ft | 429 kts | 165° |
| 2026-05-01 11:54 | 51.22488 | 10.86777 | 39405 ft | 430 kts | 165° |
| 2026-05-01 11:55 | 51.16697 | 10.89232 | 39403 ft | 431 kts | 165° |
| 2026-05-01 11:55 | 51.10897 | 10.91685 | 39401 ft | 431 kts | 165° |
| 2026-05-01 11:56 | 51.05106 | 10.94126 | 39406 ft | 431 kts | 164° |
| 2026-05-01 11:56 | 50.99307 | 10.96565 | 39400 ft | 431 kts | 165° |
| 2026-05-01 11:57 | 50.94489 | 10.98587 | 39399 ft | 431 kts | 165° |
| 2026-05-01 11:57 | 50.87711 | 11.01424 | 39401 ft | 431 kts | 165° |
| 2026-05-01 11:58 | 50.81950 | 11.03829 | 39401 ft | 431 kts | 165° |
| 2026-05-01 11:59 | 50.73210 | 11.07464 | 39397 ft | 431 kts | 164° |
| 2026-05-01 11:59 | 50.67440 | 11.09857 | 39400 ft | 431 kts | 164° |
| 2026-05-01 12:00 | 50.58732 | 11.13456 | 39401 ft | 431 kts | 164° |
| 2026-05-01 12:01 | 50.50020 | 11.17045 | 39397 ft | 432 kts | 165° |
| 2026-05-01 12:01 | 50.44205 | 11.19431 | 39402 ft | 432 kts | 165° |
| 2026-05-01 12:02 | 50.38385 | 11.21814 | 39398 ft | 433 kts | 165° |
| 2026-05-01 12:02 | 50.32556 | 11.24195 | 39393 ft | 433 kts | 165° |
| 2026-05-01 12:03 | 50.26725 | 11.26570 | 39397 ft | 433 kts | 164° |
| 2026-05-01 12:03 | 50.20889 | 11.28941 | 39394 ft | 434 kts | 165° |
| 2026-05-01 12:04 | 50.15051 | 11.31307 | 39390 ft | 433 kts | 165° |
| 2026-05-01 12:04 | 50.10199 | 11.33270 | 39393 ft | 433 kts | 165° |
| 2026-05-01 12:05 | 50.04358 | 11.35626 | 39386 ft | 434 kts | 164° |
| 2026-05-01 12:05 | 49.95588 | 11.39153 | 39392 ft | 434 kts | 164° |
| 2026-05-01 12:06 | 49.89741 | 11.41498 | 39400 ft | 434 kts | 164° |
| 2026-05-01 12:06 | 49.83888 | 11.43838 | 39392 ft | 435 kts | 164° |
| 2026-05-01 12:07 | 49.78021 | 11.46179 | 39393 ft | 436 kts | 164° |
| 2026-05-01 12:07 | 49.72152 | 11.48515 | 39391 ft | 436 kts | 164° |
| 2026-05-01 12:08 | 49.66283 | 11.50844 | 39389 ft | 436 kts | 164° |
| 2026-05-01 12:08 | 49.60409 | 11.53169 | 39388 ft | 436 kts | 164° |
| 2026-05-01 12:09 | 49.54471 | 11.55066 | 39393 ft | 437 kts | 172° |
| 2026-05-01 12:09 | 49.48401 | 11.55809 | 39392 ft | 438 kts | 176° |
| 2026-05-01 12:10 | 49.39269 | 11.56534 | 39390 ft | 438 kts | 175° |
| 2026-05-01 12:11 | 49.30145 | 11.57426 | 39383 ft | 438 kts | 175° |
| 2026-05-01 12:11 | 49.24063 | 11.58065 | 39384 ft | 438 kts | 175° |
| 2026-05-01 12:12 | 49.17981 | 11.58703 | 39390 ft | 438 kts | 175° |
| 2026-05-01 12:12 | 49.11937 | 11.59332 | 39389 ft | 439 kts | 174° |
| 2026-05-01 12:13 | 49.05849 | 11.59962 | 39387 ft | 439 kts | 174° |
| 2026-05-01 12:13 | 48.99713 | 11.60596 | 39372 ft | 439 kts | 174° |
| 2026-05-01 12:14 | 48.93622 | 11.61224 | 39365 ft | 439 kts | 174° |
| 2026-05-01 12:14 | 48.87534 | 11.61850 | 39373 ft | 439 kts | 174° |
| 2026-05-01 12:15 | 48.81482 | 11.62470 | 39375 ft | 439 kts | 174° |
| 2026-05-01 12:15 | 48.75388 | 11.63094 | 39374 ft | 439 kts | 174° |
| 2026-05-01 12:16 | 48.69296 | 11.63715 | 39364 ft | 439 kts | 174° |
| 2026-05-01 12:16 | 48.63201 | 11.64335 | 39376 ft | 439 kts | 174° |
| 2026-05-01 12:17 | 48.57111 | 11.64954 | 39369 ft | 439 kts | 174° |
| 2026-05-01 12:17 | 48.51016 | 11.65571 | 39360 ft | 439 kts | 174° |
| 2026-05-01 12:18 | 48.44921 | 11.66187 | 39363 ft | 439 kts | 174° |
| 2026-05-01 12:18 | 48.38827 | 11.66801 | 39371 ft | 439 kts | 174° |
| 2026-05-01 12:19 | 48.32734 | 11.67414 | 39379 ft | 439 kts | 174° |
| 2026-05-01 12:19 | 48.26630 | 11.68026 | 39366 ft | 440 kts | 174° |
| 2026-05-01 12:20 | 48.20524 | 11.68638 | 39358 ft | 440 kts | 174° |
| 2026-05-01 12:20 | 48.14417 | 11.69247 | 39361 ft | 440 kts | 174° |
| 2026-05-01 12:21 | 48.08307 | 11.69856 | 39354 ft | 440 kts | 174° |
| 2026-05-01 12:21 | 48.02197 | 11.70463 | 39341 ft | 440 kts | 174° |
| 2026-05-01 12:22 | 47.96087 | 11.71068 | 39338 ft | 440 kts | 174° |
| 2026-05-01 12:22 | 47.89975 | 11.71673 | 39333 ft | 440 kts | 174° |
| 2026-05-01 12:23 | 47.83863 | 11.72276 | 39334 ft | 440 kts | 174° |
| 2026-05-01 12:23 | 47.77750 | 11.72878 | 39333 ft | 440 kts | 174° |
| 2026-05-01 12:24 | 47.71636 | 11.73478 | 39333 ft | 440 kts | 174° |
| 2026-05-01 12:24 | 47.65520 | 11.74077 | 39331 ft | 440 kts | 174° |
| 2026-05-01 12:25 | 47.56350 | 11.74973 | 39317 ft | 441 kts | 174° |
| 2026-05-01 12:26 | 47.50231 | 11.75569 | 39344 ft | 440 kts | 174° |
| 2026-05-01 12:26 | 47.41039 | 11.76461 | 39326 ft | 442 kts | 174° |
| 2026-05-01 12:27 | 47.31804 | 11.76885 | 39313 ft | 444 kts | 180° |
| 2026-05-01 12:28 | 47.22586 | 11.76304 | 39308 ft | 444 kts | 181° |
| 2026-05-01 12:29 | 47.13313 | 11.75711 | 39303 ft | 445 kts | 180° |
| 2026-05-01 12:29 | 47.04012 | 11.75195 | 39306 ft | 446 kts | 180° |
| 2026-05-01 12:30 | 46.94708 | 11.74692 | 39292 ft | 446 kts | 180° |
| 2026-05-01 12:31 | 46.88503 | 11.74355 | 39287 ft | 446 kts | 180° |
| 2026-05-01 12:31 | 46.82314 | 11.74018 | 39288 ft | 445 kts | 180° |
| 2026-05-01 12:32 | 46.76114 | 11.73682 | 39292 ft | 446 kts | 181° |
| 2026-05-01 12:32 | 46.66815 | 11.73179 | 39280 ft | 446 kts | 181° |
| 2026-05-01 12:33 | 46.60606 | 11.72687 | 39289 ft | 448 kts | 187° |
| 2026-05-01 12:33 | 46.54542 | 11.70652 | 39289 ft | 448 kts | 196° |
| 2026-05-01 12:34 | 46.48591 | 11.67983 | 39293 ft | 448 kts | 197° |
| 2026-05-01 12:34 | 46.42635 | 11.65340 | 39301 ft | 448 kts | 197° |
| 2026-05-01 12:35 | 46.36649 | 11.62812 | 39314 ft | 448 kts | 196° |
| 2026-05-01 12:35 | 46.30692 | 11.60357 | 39309 ft | 449 kts | 196° |
| 2026-05-01 12:36 | 46.24689 | 11.57893 | 39309 ft | 449 kts | 196° |
| 2026-05-01 12:36 | 46.18656 | 11.55568 | 39313 ft | 449 kts | 189° |
| 2026-05-01 12:37 | 46.12573 | 11.53832 | 39317 ft | 443 kts | 186° |
| 2026-05-01 12:37 | 46.09492 | 11.53663 | 39318 ft | 444 kts | 175° |
| 2026-05-01 12:37 | 46.06420 | 11.54152 | 39331 ft | 444 kts | 169° |
| 2026-05-01 12:38 | 46.00327 | 11.55619 | 39334 ft | 445 kts | 173° |
| 2026-05-01 12:38 | 45.94135 | 11.56292 | 39342 ft | 447 kts | 175° |
| 2026-05-01 12:39 | 45.87920 | 11.56794 | 39353 ft | 448 kts | 176° |
| 2026-05-01 12:39 | 45.81695 | 11.57260 | 39351 ft | 447 kts | 176° |
| 2026-05-01 12:40 | 45.75480 | 11.57735 | 39346 ft | 448 kts | 176° |
| 2026-05-01 12:40 | 45.69259 | 11.58219 | 39351 ft | 448 kts | 176° |
| 2026-05-01 12:41 | 45.63033 | 11.58706 | 39355 ft | 448 kts | 176° |
| 2026-05-01 12:41 | 45.56807 | 11.59193 | 39356 ft | 448 kts | 176° |
| 2026-05-01 12:42 | 45.50575 | 11.59679 | 39364 ft | 449 kts | 176° |
| 2026-05-01 12:42 | 45.44330 | 11.60164 | 39365 ft | 449 kts | 176° |
| 2026-05-01 12:43 | 45.38085 | 11.60648 | 39365 ft | 449 kts | 176° |
| 2026-05-01 12:43 | 45.31834 | 11.61132 | 39361 ft | 450 kts | 176° |
| 2026-05-01 12:44 | 45.25618 | 11.61612 | 39362 ft | 450 kts | 176° |
| 2026-05-01 12:45 | 45.13085 | 11.62576 | 39379 ft | 453 kts | 176° |
| 2026-05-01 12:45 | 45.06785 | 11.63059 | 39372 ft | 453 kts | 176° |
| 2026-05-01 12:46 | 45.00483 | 11.63541 | 39371 ft | 453 kts | 176° |
| 2026-05-01 12:46 | 44.94180 | 11.64022 | 39360 ft | 454 kts | 176° |
| 2026-05-01 12:47 | 44.87866 | 11.64503 | 39364 ft | 454 kts | 176° |
| 2026-05-01 12:47 | 44.81555 | 11.64983 | 39365 ft | 454 kts | 176° |
| 2026-05-01 12:48 | 44.75242 | 11.65462 | 39359 ft | 455 kts | 177° |
| 2026-05-01 12:48 | 44.68917 | 11.65940 | 39365 ft | 455 kts | 177° |
| 2026-05-01 12:49 | 44.62588 | 11.66418 | 39366 ft | 455 kts | 177° |
| 2026-05-01 12:49 | 44.56258 | 11.66916 | 39361 ft | 456 kts | 174° |
| 2026-05-01 12:50 | 44.49949 | 11.68023 | 39364 ft | 457 kts | 172° |
| 2026-05-01 12:50 | 44.43648 | 11.69279 | 39383 ft | 457 kts | 171° |
| 2026-05-01 12:51 | 44.38417 | 11.70348 | 39378 ft | 457 kts | 171° |
| 2026-05-01 12:52 | 44.28948 | 11.72267 | 39387 ft | 459 kts | 171° |
| 2026-05-01 12:52 | 44.19465 | 11.74166 | 39390 ft | 459 kts | 171° |
| 2026-05-01 12:53 | 44.09977 | 11.76059 | 39387 ft | 459 kts | 172° |
| 2026-05-01 12:54 | 44.03653 | 11.77316 | 39376 ft | 459 kts | 172° |
| 2026-05-01 12:54 | 43.94142 | 11.79204 | 39076 ft | 463 kts | 171° |
| 2026-05-01 12:55 | 43.87734 | 11.80471 | 38516 ft | 466 kts | 171° |
| 2026-05-01 12:55 | 43.84524 | 11.81105 | 38241 ft | 467 kts | 171° |
| 2026-05-01 12:55 | 43.81311 | 11.81739 | 37964 ft | 466 kts | 171° |
| 2026-05-01 12:56 | 43.78094 | 11.82385 | 37706 ft | 469 kts | 168° |
| 2026-05-01 12:56 | 43.74886 | 11.83287 | 37439 ft | 472 kts | 165° |
| 2026-05-01 12:56 | 43.71681 | 11.84313 | 37176 ft | 473 kts | 164° |
| 2026-05-01 12:56 | 43.68482 | 11.85353 | 36912 ft | 473 kts | 164° |
| 2026-05-01 12:57 | 43.65281 | 11.86389 | 36647 ft | 473 kts | 163° |
| 2026-05-01 12:57 | 43.58861 | 11.88447 | 36152 ft | 473 kts | 163° |
| 2026-05-01 12:57 | 43.55652 | 11.89471 | 35913 ft | 474 kts | 163° |
| 2026-05-01 12:58 | 43.52431 | 11.90496 | 35655 ft | 475 kts | 163° |
| 2026-05-01 12:58 | 43.49210 | 11.91519 | 35412 ft | 475 kts | 163° |
| 2026-05-01 12:58 | 43.45992 | 11.92539 | 35170 ft | 475 kts | 163° |
| 2026-05-01 12:59 | 43.39544 | 11.94581 | 34695 ft | 476 kts | 162° |
| 2026-05-01 12:59 | 43.36356 | 11.95588 | 34449 ft | 476 kts | 162° |
| 2026-05-01 12:59 | 43.29859 | 11.97638 | 32969 ft | 477 kts | 162° |
| 2026-05-01 13:00 | 43.23393 | 11.99675 | 31857 ft | 477 kts | 161° |
| 2026-05-01 13:00 | 43.20159 | 12.00691 | 31109 ft | 477 kts | 161° |
| 2026-05-01 13:01 | 43.13717 | 12.02713 | 29576 ft | 478 kts | 161° |
| 2026-05-01 13:01 | 43.10482 | 12.03726 | 28744 ft | 477 kts | 161° |
| 2026-05-01 13:01 | 43.04040 | 12.05737 | 27217 ft | 473 kts | 161° |
| 2026-05-01 13:02 | 43.00838 | 12.06736 | 26435 ft | 470 kts | 161° |
| 2026-05-01 13:07 | 42.40572 | 12.23429 | 16098 ft | 383 kts | 165° |
| 2026-05-01 13:07 | 42.37956 | 12.24112 | 15346 ft | 383 kts | 166° |
| 2026-05-01 13:07 | 42.35343 | 12.24794 | 14621 ft | 382 kts | 166° |
| 2026-05-01 13:08 | 42.32744 | 12.25472 | 13885 ft | 379 kts | 166° |
| 2026-05-01 13:08 | 42.30162 | 12.26145 | 13087 ft | 377 kts | 166° |
| 2026-05-01 13:08 | 42.27597 | 12.26811 | 12315 ft | 374 kts | 166° |
| 2026-05-01 13:08 | 42.25067 | 12.27467 | 11664 ft | 367 kts | 166° |
| 2026-05-01 13:09 | 42.22580 | 12.28111 | 11038 ft | 360 kts | 166° |
| 2026-05-01 13:09 | 42.20143 | 12.28742 | 10452 ft | 354 kts | 166° |
| 2026-05-01 13:09 | 42.17848 | 12.29731 | 9842 ft | 340 kts | 148° |
| 2026-05-01 13:09 | 42.16063 | 12.31669 | 9217 ft | 323 kts | 125° |
| 2026-05-01 13:10 | 42.15045 | 12.34244 | 8627 ft | 304 kts | 102° |
| 2026-05-01 13:10 | 42.14920 | 12.36996 | 8090 ft | 289 kts | 78° |
| 2026-05-01 13:10 | 42.15662 | 12.39435 | 7574 ft | 279 kts | 54° |
| 2026-05-01 13:10 | 42.16939 | 12.41362 | 7101 ft | 273 kts | 45° |
| 2026-05-01 13:11 | 42.18287 | 12.43131 | 6631 ft | 268 kts | 43° |
| 2026-05-01 13:11 | 42.19604 | 12.44842 | 6143 ft | 264 kts | 44° |
| 2026-05-01 13:11 | 42.20916 | 12.46546 | 5670 ft | 260 kts | 44° |
| 2026-05-01 13:11 | 42.22210 | 12.48226 | 5204 ft | 256 kts | 43° |
| 2026-05-01 13:12 | 42.23417 | 12.49966 | 4755 ft | 254 kts | 52° |
| 2026-05-01 13:12 | 42.24261 | 12.52035 | 4276 ft | 253 kts | 69° |
| 2026-05-01 13:12 | 42.24490 | 12.54349 | 4024 ft | 246 kts | 92° |
| 2026-05-01 13:12 | 42.23998 | 12.56492 | 4021 ft | 240 kts | 117° |
| 2026-05-01 13:13 | 42.22873 | 12.58168 | 4088 ft | 249 kts | 142° |
| 2026-05-01 13:13 | 42.21183 | 12.59029 | 4705 ft | 276 kts | 172° |
| 2026-05-01 13:13 | 42.19262 | 12.58728 | 5466 ft | 281 kts | 200° |
| 2026-05-01 13:13 | 42.17609 | 12.57342 | 5892 ft | 283 kts | 219° |
| 2026-05-01 13:14 | 42.16127 | 12.55578 | 5993 ft | 285 kts | 223° |
| 2026-05-01 13:14 | 42.14635 | 12.53816 | 5997 ft | 286 kts | 215° |
| 2026-05-01 13:14 | 42.12870 | 12.52609 | 5994 ft | 285 kts | 196° |
| 2026-05-01 13:14 | 42.10934 | 12.52090 | 5996 ft | 283 kts | 186° |
| 2026-05-01 13:15 | 42.08978 | 12.51796 | 5988 ft | 283 kts | 184° |
| 2026-05-01 13:15 | 42.07016 | 12.51557 | 5995 ft | 283 kts | 183° |
| 2026-05-01 13:15 | 42.05056 | 12.51343 | 5995 ft | 282 kts | 183° |
| 2026-05-01 13:15 | 42.03099 | 12.51133 | 5994 ft | 283 kts | 182° |
| 2026-05-01 13:16 | 42.01135 | 12.50925 | 5988 ft | 283 kts | 183° |
| 2026-05-01 13:16 | 41.99171 | 12.50716 | 5997 ft | 283 kts | 182° |
| 2026-05-01 13:16 | 41.97210 | 12.50511 | 5994 ft | 283 kts | 182° |
| 2026-05-01 13:17 | 41.91336 | 12.49888 | 5573 ft | 281 kts | 182° |
| 2026-05-01 13:17 | 41.89389 | 12.49684 | 5497 ft | 281 kts | 183° |
| 2026-05-01 13:18 | 41.85551 | 12.49278 | 5087 ft | 276 kts | 183° |
| 2026-05-01 13:18 | 41.83637 | 12.49078 | 4567 ft | 277 kts | 182° |
| 2026-05-01 13:18 | 41.81712 | 12.48877 | 4125 ft | 277 kts | 183° |
| 2026-05-01 13:18 | 41.79841 | 12.48679 | 3995 ft | 262 kts | 182° |
| 2026-05-01 13:19 | 41.78080 | 12.48492 | 3981 ft | 247 kts | 183° |
| 2026-05-01 13:19 | 41.76377 | 12.48312 | 3996 ft | 245 kts | 182° |
| 2026-05-01 13:19 | 41.72974 | 12.47959 | 3995 ft | 244 kts | 183° |
| 2026-05-01 13:20 | 41.71286 | 12.47782 | 3992 ft | 243 kts | 184° |
| 2026-05-01 13:20 | 41.69606 | 12.47608 | 3990 ft | 241 kts | 183° |
| 2026-05-01 13:20 | 41.67940 | 12.47691 | 3990 ft | 239 kts | 170° |
| 2026-05-01 13:21 | 41.64710 | 12.48664 | 3995 ft | 237 kts | 164° |
| 2026-05-01 13:21 | 41.63123 | 12.49234 | 4017 ft | 235 kts | 163° |
| 2026-05-01 13:21 | 41.61526 | 12.49754 | 3996 ft | 238 kts | 170° |
| 2026-05-01 13:21 | 41.59880 | 12.49608 | 3997 ft | 240 kts | 197° |
| 2026-05-01 13:22 | 41.58498 | 12.48399 | 3995 ft | 240 kts | 229° |
| 2026-05-01 13:22 | 41.57573 | 12.46547 | 3997 ft | 240 kts | 242° |
| 2026-05-01 13:22 | 41.56796 | 12.44572 | 3991 ft | 240 kts | 246° |
| 2026-05-01 13:22 | 41.56300 | 12.42462 | 3990 ft | 238 kts | 264° |
| 2026-05-01 13:23 | 41.56422 | 12.40294 | 3987 ft | 234 kts | 291° |
| 2026-05-01 13:23 | 41.57302 | 12.38526 | 3998 ft | 229 kts | 317° |
| 2026-05-01 13:23 | 41.58552 | 12.37244 | 3995 ft | 226 kts | 333° |
| 2026-05-01 13:23 | 41.59990 | 12.36424 | 3995 ft | 224 kts | 344° |
| 2026-05-01 13:24 | 41.61476 | 12.35817 | 3989 ft | 223 kts | 346° |
| 2026-05-01 13:24 | 41.62956 | 12.35217 | 3829 ft | 222 kts | 345° |
| 2026-05-01 13:24 | 41.64437 | 12.34653 | 3574 ft | 222 kts | 347° |
| 2026-05-01 13:25 | 41.67284 | 12.33446 | 3067 ft | 198 kts | 343° |
| 2026-05-01 13:25 | 41.68534 | 12.32903 | 2887 ft | 178 kts | 344° |
| 2026-05-01 13:25 | 41.69632 | 12.32407 | 2793 ft | 162 kts | 343° |
| 2026-05-01 13:25 | 41.70735 | 12.31871 | 2969 ft | 177 kts | 342° |
| 2026-05-01 13:26 | 41.71890 | 12.31295 | 3228 ft | 169 kts | 343° |
| 2026-05-01 13:26 | 41.72985 | 12.30841 | 3271 ft | 164 kts | 346° |
| 2026-05-01 13:26 | 41.74118 | 12.30366 | 3069 ft | 181 kts | 343° |
| 2026-05-01 13:26 | 41.75311 | 12.29836 | 2744 ft | 177 kts | 345° |
| 2026-05-01 13:27 | 41.76457 | 12.29346 | 2344 ft | 170 kts | 348° |
| 2026-05-01 13:27 | 41.77589 | 12.28943 | 1822 ft | 172 kts | 345° |
| 2026-05-01 13:27 | 41.79882 | 12.28086 | 673 ft | 173 kts | 349° |
| 2026-05-01 13:28 | 41.82123 | 12.27205 | 12 ft | 112 kts | 340° |
| 2026-05-01 13:28 | 41.82587 | 12.26993 | 18 ft | 46 kts | 344° |
| 2026-05-01 13:29 | 41.83062 | 12.26741 | 18 ft | 28 kts | 323° |
| 2026-05-01 13:29 | 41.83208 | 12.26551 | 17 ft | 0 kts | 313° |
| 2026-05-01 13:31 | 41.83230 | 12.26431 | 19 ft | 14 kts | 226° |
| 2026-05-01 13:32 | 41.82910 | 12.26534 | 16 ft | 32 kts | 163° |
| 2026-05-01 13:33 | 41.82300 | 12.26788 | 15 ft | 32 kts | 162° |
| 2026-05-01 13:33 | 41.81904 | 12.26949 | 15 ft | 22 kts | 173° |
| 2026-05-01 13:34 | 41.81618 | 12.26936 | 22 ft | 20 kts | 162° |
| 2026-05-01 13:34 | 41.81272 | 12.27084 | 19 ft | 31 kts | 162° |
| 2026-05-01 13:35 | 41.80906 | 12.27221 | 12 ft | 25 kts | 182° |
| 2026-05-01 13:35 | 41.80772 | 12.27126 | 13 ft | 22 kts | 248° |
| 2026-05-01 13:35 | 41.80660 | 12.26719 | 15 ft | 23 kts | 249° |
| 2026-05-01 13:36 | 41.80603 | 12.26509 | 20 ft | 24 kts | 250° |
| 2026-05-01 13:36 | 41.80544 | 12.26292 | 18 ft | 26 kts | 250° |
| 2026-05-01 13:36 | 41.80390 | 12.26141 | 18 ft | 14 kts | 204° |
| 2026-05-01 13:37 | 41.80276 | 12.26072 | 16 ft | 23 kts | 204° |
| 2026-05-01 13:37 | 41.80170 | 12.26007 | 18 ft | 27 kts | 205° |
| 2026-05-01 13:37 | 41.79973 | 12.25886 | 22 ft | 0 kts | 204° |
| 2026-05-01 13:37 | 41.79953 | 12.25874 | 21 ft | 8 kts | 204° |
| 2026-05-01 13:38 | 41.79841 | 12.25792 | 21 ft | 0 kts | 208° |
| 2026-05-01 13:38 | 41.79834 | 12.25791 | 23 ft | 2 kts | 199° |
| 2026-05-01 13:38 | 41.79792 | 12.25763 | 22 ft | 11 kts | 206° |
| 2026-05-01 13:39 | 41.79754 | 12.25719 | 22 ft | 5 kts | 252° |
| 2026-05-01 13:39 | 41.79760 | 12.25683 | 23 ft | 5 kts | 300° |
| 2026-05-01 13:39 | 41.79766 | 12.25666 | 21 ft | 0 kts | 297° |